Time;durP1;ratioP1;P1;durP2;ratioP2;P2;SDS_P1;SDS_P2;PMS_P1;PMS_P2;Temp;Humidity;BMP_temperature;BMP_pressure;BME280_temperature;BME280_humidity;BME280_pressure;Samples;Min_cycle;Max_cycle;Signal;HPM_P1;HPM_P2
2021/08/27 00:02:22;;;;;;;10.35;5.55;;;12.40;92.10;;;;;;5033800;28;20064;-68
2021/08/27 00:04:48;;;;;;;13.95;6.65;;;12.40;92.00;;;;;;5005719;28;20029;-68
2021/08/27 00:07:13;;;;;;;8.60;4.40;;;12.40;92.10;;;;;;5004996;28;20145;-68
2021/08/27 00:09:39;;;;;;;7.60;3.72;;;12.40;92.30;;;;;;5017071;28;20026;-68
2021/08/27 00:12:05;;;;;;;10.88;5.28;;;12.50;92.70;;;;;;5004070;28;20018;-68
2021/08/27 00:14:31;;;;;;;8.52;5.00;;;12.50;92.10;;;;;;5003843;28;20172;-68
2021/08/27 00:16:57;;;;;;;6.72;4.55;;;12.50;92.20;;;;;;5006657;28;20030;-68
2021/08/27 00:19:22;;;;;;;7.78;4.68;;;12.50;92.00;;;;;;5002174;28;20474;-68
2021/08/27 00:21:48;;;;;;;7.53;4.00;;;12.50;91.80;;;;;;4999338;28;20052;-68
2021/08/27 00:24:14;;;;;;;6.93;4.28;;;12.60;91.80;;;;;;5001218;28;20023;-69
2021/08/27 00:26:39;;;;;;;6.50;3.58;;;12.60;92.20;;;;;;4998404;28;20382;-68
2021/08/27 00:29:05;;;;;;;7.72;3.60;;;12.50;92.00;;;;;;5009522;28;20611;-68
2021/08/27 00:31:31;;;;;;;5.97;4.00;;;12.50;92.00;;;;;;4999834;28;20474;-69
2021/08/27 00:33:57;;;;;;;5.68;3.40;;;12.50;92.10;;;;;;5001899;28;20045;-68
2021/08/27 00:36:23;;;;;;;7.72;3.85;;;12.50;92.00;;;;;;5033697;28;20026;-68
2021/08/27 00:38:49;;;;;;;6.30;3.15;;;12.40;92.20;;;;;;5006500;28;20041;-68
2021/08/27 00:41:15;;;;;;;5.93;3.47;;;12.40;92.20;;;;;;5006350;28;20034;-68
2021/08/27 00:43:41;;;;;;;7.47;3.70;;;12.40;92.30;;;;;;5005984;28;20513;-67
2021/08/27 00:46:07;;;;;;;6.07;3.72;;;12.40;92.30;;;;;;5028609;28;20026;-67
2021/08/27 00:48:32;;;;;;;7.05;4.07;;;12.30;92.50;;;;;;5010351;28;20021;-68
2021/08/27 00:50:58;;;;;;;5.53;3.53;;;12.30;92.50;;;;;;5010335;28;20034;-69
2021/08/27 00:53:24;;;;;;;7.85;3.80;;;12.30;92.70;;;;;;5001834;28;20069;-68
2021/08/27 00:55:50;;;;;;;8.65;3.88;;;12.30;92.70;;;;;;4999768;28;20838;-68
2021/08/27 00:58:16;;;;;;;6.28;3.78;;;12.30;93.20;;;;;;5006858;28;20410;-68
2021/08/27 01:00:45;;;;;;;6.38;4.07;;;12.30;93.10;;;;;;5004599;28;20050;-69
2021/08/27 01:03:13;;;;;;;7.57;4.13;;;12.30;93.10;;;;;;5000081;28;20031;-69
2021/08/27 01:05:43;;;;;;;6.73;4.03;;;12.40;93.10;;;;;;5014721;28;20430;-68
2021/08/27 01:08:32;;;;;;;8.02;4.35;;;12.30;93.30;;;;;;4999979;28;20455;-68
2021/08/27 01:11:08;;;;;;;6.97;4.45;;;12.30;93.30;;;;;;4998269;28;20031;-68
2021/08/27 01:13:40;;;;;;;8.98;3.80;;;12.30;93.20;;;;;;5000089;28;20026;-68
2021/08/27 01:16:21;;;;;;;7.25;3.67;;;12.20;93.30;;;;;;5005384;28;20736;-67
2021/08/27 01:19:20;;;;;;;5.50;3.47;;;12.20;93.40;;;;;;5004751;28;20109;-68
2021/08/27 01:21:55;;;;;;;7.38;3.92;;;12.20;93.50;;;;;;4998778;28;20042;-68
2021/08/27 01:24:21;;;;;;;7.80;3.75;;;12.20;93.60;;;;;;5001319;28;20475;-68
2021/08/27 01:26:54;;;;;;;9.43;4.20;;;12.10;94.10;;;;;;5003015;28;20057;-68
2021/08/27 01:29:41;;;;;;;8.48;3.78;;;12.10;93.80;;;;;;5000673;28;20022;-69
2021/08/27 01:32:15;;;;;;;5.90;3.85;;;12.10;93.70;;;;;;4998046;28;20046;-68
2021/08/27 01:34:43;;;;;;;5.55;3.28;;;12.10;93.70;;;;;;5007737;28;20129;-68
2021/08/27 01:37:22;;;;;;;8.15;3.70;;;12.20;93.80;;;;;;5009322;28;20133;-68
2021/08/27 01:39:56;;;;;;;8.07;3.83;;;12.20;93.80;;;;;;5021024;28;20061;-69
2021/08/27 01:42:27;;;;;;;8.43;4.28;;;12.20;93.70;;;;;;4999017;28;20030;-68
2021/08/27 01:44:58;;;;;;;8.23;3.60;;;12.10;94.70;;;;;;5007799;28;20017;-68
2021/08/27 01:47:31;;;;;;;5.63;3.72;;;12.10;94.10;;;;;;5005331;28;20026;-68
2021/08/27 01:49:58;;;;;;;8.80;4.00;;;12.20;93.90;;;;;;5011273;28;20101;-68
2021/08/27 01:52:25;;;;;;;6.55;3.95;;;12.20;93.70;;;;;;5034894;28;20077;-68
2021/08/27 01:54:52;;;;;;;9.35;3.97;;;12.20;94.00;;;;;;5008412;28;20049;-68
2021/08/27 01:57:18;;;;;;;7.55;4.22;;;12.20;94.20;;;;;;5008981;28;20509;-68
2021/08/27 01:59:46;;;;;;;9.75;4.13;;;12.20;94.20;;;;;;4998022;28;20085;-68
2021/08/27 02:02:18;;;;;;;6.90;3.93;;;12.20;94.20;;;;;;5003180;28;20037;-68
2021/08/27 02:04:53;;;;;;;10.68;5.05;;;12.20;94.20;;;;;;5002969;28;20730;-68
2021/08/27 02:07:19;;;;;;;8.18;4.13;;;12.20;94.00;;;;;;5002910;28;20499;-68
2021/08/27 02:09:48;;;;;;;7.32;4.18;;;12.20;94.30;;;;;;5009991;28;20032;-69
2021/08/27 02:12:15;;;;;;;8.25;4.18;;;12.30;93.90;;;;;;5009823;28;20026;-68
2021/08/27 02:14:42;;;;;;;7.45;3.88;;;12.30;93.90;;;;;;5004372;28;20033;-69
2021/08/27 02:17:08;;;;;;;9.40;4.70;;;12.30;93.80;;;;;;5033213;28;20018;-69
2021/08/27 02:19:36;;;;;;;8.15;3.90;;;12.30;93.70;;;;;;5004957;28;20018;-68
2021/08/27 02:22:06;;;;;;;10.40;4.53;;;12.30;93.70;;;;;;5006120;28;20018;-67
2021/08/27 02:24:43;;;;;;;8.15;4.22;;;12.30;93.80;;;;;;5004004;28;20825;-68
2021/08/27 02:27:09;;;;;;;9.40;4.32;;;12.30;93.80;;;;;;5000254;28;20049;-69
2021/08/27 02:29:37;;;;;;;8.35;4.40;;;12.30;93.70;;;;;;5004282;28;20026;-68
2021/08/27 02:32:07;;;;;;;7.55;4.40;;;12.30;93.70;;;;;;5004863;28;20487;-68
2021/08/27 02:34:35;;;;;;;7.30;4.13;;;12.30;93.70;;;;;;5040212;28;20034;-68
2021/08/27 02:37:02;;;;;;;;;;;12.30;93.80;;;;;;5005028;28;20033;-69
2021/08/27 02:39:29;;;;;;;6.72;4.25;;;12.30;93.90;;;;;;5000755;28;19921;-69
2021/08/27 02:41:56;;;;;;;5.55;4.03;;;12.30;93.90;;;;;;5031328;28;20402;-68
2021/08/27 02:44:23;;;;;;;8.70;4.47;;;12.20;94.20;;;;;;5000803;28;20106;-68
2021/08/27 02:46:49;;;;;;;9.32;4.85;;;12.20;94.00;;;;;;5006739;28;20026;-69
2021/08/27 02:49:15;;;;;;;8.48;4.50;;;12.30;93.80;;;;;;5008136;28;20029;-68
2021/08/27 02:51:50;;;;;;;8.50;4.47;;;12.30;94.10;;;;;;5005397;28;20022;-68
2021/08/27 02:54:19;;;;;;;7.18;4.40;;;12.30;94.00;;;;;;5007411;28;20029;-68
2021/08/27 02:56:48;;;;;;;8.45;4.32;;;12.30;93.80;;;;;;5010436;28;20364;-68
2021/08/27 02:59:18;;;;;;;8.57;4.43;;;12.30;93.90;;;;;;5001652;28;20038;-69
2021/08/27 03:01:52;;;;;;;8.32;4.43;;;12.30;94.00;;;;;;4999871;28;20046;-68
2021/08/27 03:04:40;;;;;;;8.52;4.68;;;12.30;93.90;;;;;;5004221;28;20031;-69
2021/08/27 03:07:08;;;;;;;8.95;5.05;;;12.30;93.90;;;;;;5005175;28;20557;-68
2021/08/27 03:10:03;;;;;;;9.75;4.93;;;12.30;94.00;;;;;;5020666;28;20058;-68
2021/08/27 03:12:53;;;;;;;6.85;4.15;;;12.30;94.00;;;;;;5006124;28;20026;-69
2021/08/27 03:15:46;;;;;;;8.95;5.38;;;12.30;93.90;;;;;;5011663;28;20038;-68
2021/08/27 03:18:16;;;;;;;9.32;5.50;;;12.30;93.90;;;;;;5004761;28;20375;-68
2021/08/27 03:20:56;;;;;;;9.50;5.13;;;12.30;93.90;;;;;;4999858;28;20079;-68
2021/08/27 03:23:24;;;;;;;7.63;4.72;;;12.30;93.90;;;;;;5006930;28;20040;-69
2021/08/27 03:25:52;;;;;;;8.37;4.83;;;12.30;93.80;;;;;;5006081;28;20102;-68
2021/08/27 03:28:25;;;;;;;10.57;4.88;;;12.30;93.80;;;;;;5005044;28;20018;-68
2021/08/27 03:30:53;;;;;;;8.90;5.28;;;12.30;93.80;;;;;;5002682;28;20044;-68
2021/08/27 03:33:22;;;;;;;9.90;4.80;;;12.30;94.00;;;;;;4998456;28;20025;-69
2021/08/27 03:35:49;;;;;;;10.73;4.78;;;12.30;93.90;;;;;;5008388;28;20494;-68
2021/08/27 03:38:15;;;;;;;7.75;4.55;;;12.30;93.80;;;;;;5008522;28;20034;-69
2021/08/27 03:40:43;;;;;;;8.10;4.82;;;12.30;94.20;;;;;;5007348;28;20053;-68
2021/08/27 03:43:09;;;;;;;10.10;5.20;;;12.30;94.20;;;;;;5012909;28;20079;-68
2021/08/27 03:45:37;;;;;;;9.93;4.50;;;12.30;93.90;;;;;;5002261;28;20366;-68
2021/08/27 03:48:03;;;;;;;7.35;4.47;;;12.30;93.90;;;;;;4999848;28;20119;-69
2021/08/27 03:50:29;;;;;;;7.78;4.72;;;12.30;93.80;;;;;;5040336;28;20498;-69
2021/08/27 03:52:55;;;;;;;9.25;4.70;;;12.30;93.90;;;;;;5003646;28;20030;-69
2021/08/27 03:55:22;;;;;;;7.60;4.20;;;12.30;93.70;;;;;;5003227;28;20030;-69
2021/08/27 03:57:49;;;;;;;6.97;4.38;;;12.40;93.70;;;;;;5029735;28;20048;-69
2021/08/27 04:00:18;;;;;;;6.88;4.18;;;12.30;94.10;;;;;;5005508;28;20060;-68
2021/08/27 04:02:44;;;;;;;7.80;4.18;;;12.30;93.70;;;;;;5014368;28;20453;-68
2021/08/27 04:05:10;;;;;;;7.22;4.60;;;12.30;93.70;;;;;;5013086;28;20021;-68
2021/08/27 04:07:36;;;;;;;8.88;4.47;;;12.30;93.70;;;;;;5003645;28;20030;-68
2021/08/27 04:10:03;;;;;;;9.38;4.15;;;12.40;93.50;;;;;;5021875;28;20038;-69
2021/08/27 04:12:29;;;;;;;7.07;4.03;;;12.30;93.60;;;;;;5040693;28;20121;-68
2021/08/27 04:14:55;;;;;;;6.15;3.50;;;12.30;93.60;;;;;;5002907;28;20105;-68
2021/08/27 04:17:20;;;;;;;7.97;4.70;;;12.30;93.70;;;;;;5000132;28;20061;-68
2021/08/27 04:19:46;;;;;;;12.93;4.40;;;12.30;93.60;;;;;;5000507;28;20042;-68
2021/08/27 04:22:12;;;;;;;6.03;3.38;;;12.30;93.70;;;;;;5000554;28;20434;-68
2021/08/27 04:24:37;;;;;;;6.88;3.83;;;12.30;93.60;;;;;;5004584;28;20033;-68
2021/08/27 04:27:03;;;;;;;6.18;4.07;;;12.30;93.60;;;;;;5006251;28;20056;-69
2021/08/27 04:29:29;;;;;;;7.95;3.40;;;12.30;93.60;;;;;;5006661;28;20033;-69
2021/08/27 04:31:56;;;;;;;7.13;3.80;;;12.20;93.60;;;;;;4997044;28;20037;-68
2021/08/27 04:34:22;;;;;;;5.90;3.70;;;12.20;93.50;;;;;;5011414;28;20379;-68
2021/08/27 04:36:48;;;;;;;6.15;4.10;;;12.20;93.50;;;;;;5010877;28;20036;-68
2021/08/27 04:39:13;;;;;;;6.90;4.10;;;12.20;93.50;;;;;;5010731;28;20091;-68
2021/08/27 04:41:39;;;;;;;13.63;5.65;;;12.30;93.50;;;;;;5006685;28;20034;-69
2021/08/27 04:44:05;;;;;;;9.35;4.32;;;12.20;93.40;;;;;;5010445;28;20033;-68
2021/08/27 04:46:31;;;;;;;6.93;4.55;;;12.30;93.60;;;;;;5009243;28;20490;-68
2021/08/27 04:48:56;;;;;;;7.53;3.80;;;12.20;93.50;;;;;;4997983;28;20097;-68
2021/08/27 04:51:22;;;;;;;7.00;3.97;;;12.20;93.70;;;;;;5017177;28;20037;-68
2021/08/27 04:53:48;;;;;;;9.02;4.07;;;12.20;93.70;;;;;;5007372;28;20024;-68
2021/08/27 04:56:14;;;;;;;7.55;3.90;;;12.20;93.70;;;;;;5010395;28;20085;-69
2021/08/27 04:58:39;;;;;;;7.68;4.00;;;12.20;93.80;;;;;;5037932;28;20026;-69
2021/08/27 05:01:05;;;;;;;8.88;3.85;;;12.20;93.70;;;;;;5008564;28;20775;-68
2021/08/27 05:03:32;;;;;;;8.57;4.30;;;12.20;93.90;;;;;;5000539;28;20541;-68
2021/08/27 05:05:57;;;;;;;11.27;4.30;;;12.20;94.00;;;;;;5011805;28;20077;-69
2021/08/27 05:08:23;;;;;;;10.52;4.57;;;12.10;94.10;;;;;;5006284;28;20480;-68
2021/08/27 05:10:49;;;;;;;7.28;4.18;;;12.10;94.00;;;;;;4994954;28;20040;-69
2021/08/27 05:13:14;;;;;;;9.65;4.63;;;12.10;94.10;;;;;;5010201;28;20118;-69
2021/08/27 05:15:40;;;;;;;11.52;4.90;;;12.10;94.00;;;;;;5011588;28;20082;-68
2021/08/27 05:18:06;;;;;;;7.80;4.45;;;12.10;94.00;;;;;;4996319;28;20642;-68
2021/08/27 05:20:31;;;;;;;7.32;4.15;;;12.20;94.00;;;;;;5002850;28;20039;-68
2021/08/27 05:22:57;;;;;;;9.40;4.25;;;12.20;94.00;;;;;;5003460;28;20386;-69
2021/08/27 05:25:23;;;;;;;7.07;4.05;;;12.30;94.00;;;;;;5007962;28;20026;-68
2021/08/27 05:27:50;;;;;;;9.80;4.25;;;12.20;94.20;;;;;;5020544;28;20053;-68
2021/08/27 05:30:18;;;;;;;7.95;3.90;;;12.30;94.20;;;;;;5000574;28;20206;-69
2021/08/27 05:32:45;;;;;;;7.10;4.40;;;12.30;94.10;;;;;;5002230;28;20049;-69
2021/08/27 05:35:12;;;;;;;8.98;4.43;;;12.30;94.10;;;;;;5016921;28;20073;-68
2021/08/27 05:37:37;;;;;;;9.05;4.32;;;12.30;94.40;;;;;;5001121;28;20033;-69
2021/08/27 05:40:05;;;;;;;8.20;4.25;;;12.40;94.10;;;;;;5013051;28;20040;-69
2021/08/27 05:42:31;;;;;;;8.50;4.30;;;12.40;94.20;;;;;;5012428;28;20053;-69
2021/08/27 05:44:57;;;;;;;7.75;4.47;;;12.50;94.30;;;;;;5009741;28;20084;-68
2021/08/27 05:47:23;;;;;;;9.20;4.40;;;12.40;94.30;;;;;;5012465;28;20032;-69
2021/08/27 05:49:48;;;;;;;6.63;4.38;;;12.50;94.10;;;;;;5016111;28;20029;-70
2021/08/27 05:52:14;;;;;;;9.85;5.13;;;12.50;94.10;;;;;;5005650;28;20028;-69
2021/08/27 05:54:40;;;;;;;9.02;4.55;;;12.40;94.10;;;;;;5003014;28;20108;-69
2021/08/27 05:57:06;;;;;;;10.10;4.53;;;12.50;94.30;;;;;;5012394;28;20509;-68
2021/08/27 05:59:32;;;;;;;9.38;4.70;;;12.50;94.10;;;;;;5006247;28;20060;-69
2021/08/27 06:01:57;;;;;;;9.25;4.40;;;12.50;94.10;;;;;;5008065;28;20051;-69
2021/08/27 06:04:23;;;;;;;10.48;4.97;;;12.60;93.90;;;;;;5004091;28;20021;-68
2021/08/27 06:06:50;;;;;;;8.82;5.25;;;12.50;94.00;;;;;;4997243;28;20037;-69
2021/08/27 06:09:16;;;;;;;7.93;4.40;;;12.50;94.10;;;;;;4999044;28;20037;-69
2021/08/27 06:11:42;;;;;;;9.90;5.05;;;12.50;93.90;;;;;;4999764;28;20226;-69
2021/08/27 06:14:08;;;;;;;9.30;5.07;;;12.50;94.20;;;;;;5006681;28;20029;-69
2021/08/27 06:16:34;;;;;;;8.20;5.35;;;12.50;94.20;;;;;;5004854;28;20026;-69
2021/08/27 06:19:03;;;;;;;9.25;4.72;;;12.60;94.10;;;;;;5008040;28;20508;-69
2021/08/27 06:21:29;;;;;;;8.77;4.78;;;12.60;94.00;;;;;;5002469;28;20048;-69
2021/08/27 06:23:55;;;;;;;10.07;5.18;;;12.60;94.10;;;;;;5006904;28;20363;-68
2021/08/27 06:26:22;;;;;;;7.53;4.68;;;12.70;94.00;;;;;;5004419;28;20026;-69
2021/08/27 06:28:47;;;;;;;7.68;4.80;;;12.70;94.20;;;;;;5001409;28;20034;-69
2021/08/27 06:31:14;;;;;;;10.50;5.68;;;12.70;93.90;;;;;;4994802;28;20541;-69
2021/08/27 06:33:39;;;;;;;8.70;5.10;;;12.70;94.00;;;;;;5005478;28;20041;-69
2021/08/27 06:36:06;;;;;;;10.80;5.60;;;12.70;94.00;;;;;;5003809;28;20026;-69
2021/08/27 06:38:31;;;;;;;8.57;4.70;;;12.70;94.00;;;;;;5004682;28;20056;-69
2021/08/27 06:41:02;;;;;;;10.32;5.00;;;12.70;94.10;;;;;;5005079;28;20128;-69
2021/08/27 06:43:30;;;;;;;8.65;4.85;;;12.70;93.90;;;;;;5005220;28;20022;-69
2021/08/27 06:45:57;;;;;;;;;;;12.70;94.30;;;;;;5006167;28;20034;-68
2021/08/27 06:48:22;;;;;;;8.85;4.53;;;12.70;94.20;;;;;;5010421;28;20401;-69
2021/08/27 06:50:49;;;;;;;9.15;4.97;;;12.70;94.40;;;;;;5005927;28;20077;-68
2021/08/27 06:53:15;;;;;;;6.80;4.35;;;12.70;94.30;;;;;;5005112;28;20095;-68
2021/08/27 06:55:40;;;;;;;7.65;4.70;;;12.80;94.30;;;;;;5005526;28;20088;-67
2021/08/27 06:58:06;;;;;;;6.68;4.05;;;12.80;94.30;;;;;;5004015;28;20077;-68
2021/08/27 07:00:33;;;;;;;7.07;4.68;;;12.80;94.30;;;;;;5009204;28;20050;-69
2021/08/27 07:02:59;;;;;;;7.38;4.40;;;12.80;94.30;;;;;;5007097;28;20180;-68
2021/08/27 07:05:25;;;;;;;7.60;4.05;;;12.90;94.40;;;;;;5010247;28;20105;-68
2021/08/27 07:07:51;;;;;;;6.50;3.63;;;12.80;93.30;;;;;;5012911;28;20026;-68
2021/08/27 07:10:16;;;;;;;7.85;4.45;;;12.80;93.20;;;;;;5010142;28;20463;-68
2021/08/27 07:12:42;;;;;;;6.50;4.00;;;12.80;93.30;;;;;;5005955;28;20531;-69
2021/08/27 07:15:09;;;;;;;8.23;4.32;;;12.80;93.30;;;;;;5003083;28;20184;-69
2021/08/27 07:17:34;;;;;;;8.57;4.45;;;12.90;93.40;;;;;;5009209;28;20030;-68
2021/08/27 07:20:01;;;;;;;8.20;4.22;;;13.00;93.40;;;;;;5008113;28;20053;-69
2021/08/27 07:22:26;;;;;;;9.05;4.80;;;13.00;93.10;;;;;;5004939;28;20433;-69
2021/08/27 07:24:52;;;;;;;9.15;4.50;;;13.10;92.90;;;;;;5011904;28;20030;-70
2021/08/27 07:27:18;;;;;;;6.68;4.32;;;13.10;94.00;;;;;;5003494;28;20029;-69
2021/08/27 07:29:43;;;;;;;6.80;4.15;;;13.20;92.90;;;;;;5011037;28;20030;-67
2021/08/27 07:32:12;;;;;;;7.15;4.10;;;13.20;93.50;;;;;;5001442;28;20034;-68
2021/08/27 07:34:45;;;;;;;4.32;3.40;;;13.30;92.40;;;;;;5014041;28;20025;-68
2021/08/27 07:37:12;;;;;;;6.05;3.88;;;13.20;92.40;;;;;;5012470;28;20026;-68
2021/08/27 07:39:38;;;;;;;5.60;3.53;;;13.30;92.60;;;;;;5004345;28;20037;-67
2021/08/27 07:42:05;;;;;;;6.57;3.85;;;13.40;93.10;;;;;;5005196;28;20034;-68
2021/08/27 07:44:31;;;;;;;4.32;2.80;;;13.50;93.30;;;;;;5007149;28;20454;-68
2021/08/27 07:46:57;;;;;;;5.57;3.22;;;13.60;92.30;;;;;;5013230;28;20026;-68
2021/08/27 07:49:23;;;;;;;4.22;3.45;;;13.60;91.50;;;;;;5003366;28;20032;-68
2021/08/27 07:51:50;;;;;;;4.50;2.70;;;13.60;91.10;;;;;;5008908;28;20034;-69
2021/08/27 07:54:16;;;;;;;5.10;2.83;;;13.60;91.50;;;;;;5011458;28;20026;-68
2021/08/27 07:56:42;;;;;;;6.10;2.53;;;13.70;91.20;;;;;;5007821;28;20598;-68
2021/08/27 07:59:08;;;;;;;4.95;2.63;;;13.70;90.60;;;;;;4998295;28;20038;-69
2021/08/27 08:01:33;;;;;;;3.92;2.28;;;13.80;91.20;;;;;;5008849;28;20038;-68
2021/08/27 08:04:02;;;;;;;5.82;2.47;;;13.80;90.40;;;;;;5004984;28;20036;-68
2021/08/27 08:06:29;;;;;;;5.10;3.08;;;13.80;91.10;;;;;;5010331;28;20029;-68
2021/08/27 08:08:55;;;;;;;6.47;3.10;;;13.90;90.90;;;;;;5005800;28;20041;-68
2021/08/27 08:11:21;;;;;;;3.30;2.90;;;14.00;91.60;;;;;;5008318;28;20018;-68
2021/08/27 08:13:46;;;;;;;6.32;2.75;;;14.00;90.80;;;;;;5010971;28;20033;-69
2021/08/27 08:16:13;;;;;;;4.50;2.50;;;13.90;91.10;;;;;;5007474;28;20033;-68
2021/08/27 08:18:40;;;;;;;4.10;2.40;;;13.80;90.80;;;;;;5003307;28;20031;-68
2021/08/27 08:21:06;;;;;;;2.95;2.42;;;13.70;90.40;;;;;;5008117;28;20153;-68
2021/08/27 08:23:33;;;;;;;5.07;3.15;;;13.70;91.00;;;;;;5012007;28;20171;-68
2021/08/27 08:25:58;;;;;;;4.53;2.90;;;13.60;90.40;;;;;;5006336;28;20030;-69
2021/08/27 08:28:25;;;;;;;3.42;2.40;;;13.50;90.80;;;;;;5002673;28;20021;-68
2021/08/27 08:30:52;;;;;;;3.67;2.75;;;13.50;91.30;;;;;;5010024;28;20034;-68
2021/08/27 08:33:18;;;;;;;6.55;2.72;;;13.40;91.90;;;;;;5010300;28;20029;-68
2021/08/27 08:35:44;;;;;;;5.85;2.92;;;13.30;91.90;;;;;;5006196;28;20080;-69
2021/08/27 08:38:10;;;;;;;4.57;2.63;;;13.40;92.70;;;;;;5008903;28;20463;-68
2021/08/27 08:40:42;;;;;;;5.28;2.92;;;13.30;92.30;;;;;;5011375;28;20394;-67
2021/08/27 08:43:13;;;;;;;4.95;3.28;;;13.30;92.50;;;;;;5012538;28;20022;-68
2021/08/27 08:45:49;;;;;;;6.38;3.38;;;13.30;92.30;;;;;;5006703;28;20525;-68
2021/08/27 08:48:19;;;;;;;4.15;3.05;;;13.20;92.50;;;;;;5017982;28;20025;-68
2021/08/27 08:50:46;;;;;;;4.75;2.83;;;13.30;92.30;;;;;;5002792;28;20108;-68
2021/08/27 08:53:12;;;;;;;4.55;3.30;;;13.40;92.90;;;;;;5004611;28;20109;-68
2021/08/27 08:55:39;;;;;;;4.60;3.35;;;13.50;93.00;;;;;;5009516;28;20442;-69
2021/08/27 08:58:05;;;;;;;7.20;3.70;;;13.60;92.90;;;;;;5010545;28;20402;-69
2021/08/27 09:00:31;;;;;;;5.43;3.55;;;13.60;92.60;;;;;;5016055;28;20033;-68
2021/08/27 09:02:59;;;;;;;5.18;3.50;;;13.60;91.90;;;;;;5014059;28;20045;-68
2021/08/27 09:05:24;;;;;;;4.35;3.30;;;13.70;92.10;;;;;;5005188;28;20033;-68
2021/08/27 09:07:51;;;;;;;8.35;3.63;;;13.90;91.90;;;;;;5008874;28;20034;-68
2021/08/27 09:10:18;;;;;;;6.32;4.10;;;14.10;92.40;;;;;;5008074;28;20094;-68
2021/08/27 09:12:44;;;;;;;5.97;3.90;;;14.20;91.40;;;;;;5012118;28;20052;-69
2021/08/27 09:15:12;;;;;;;7.45;3.90;;;14.20;91.70;;;;;;5009924;28;20105;-68
2021/08/27 09:17:43;;;;;;;6.60;3.73;;;14.20;91.70;;;;;;5008389;28;20481;-69
2021/08/27 09:20:19;;;;;;;5.53;3.67;;;14.20;91.20;;;;;;4999055;28;20407;-68
2021/08/27 09:22:56;;;;;;;4.28;3.05;;;14.30;91.40;;;;;;5006982;28;20108;-68
2021/08/27 09:25:33;;;;;;;5.78;3.28;;;14.20;90.30;;;;;;5001907;28;20019;-68
2021/08/27 09:28:09;;;;;;;4.13;2.83;;;14.20;89.60;;;;;;5005807;28;20030;-68
2021/08/27 09:30:51;;;;;;;3.75;2.33;;;14.30;90.70;;;;;;4999224;28;20022;-68
2021/08/27 09:33:23;;;;;;;5.90;2.80;;;14.30;89.10;;;;;;5013277;28;20491;-69
2021/08/27 09:36:00;;;;;;;5.70;2.70;;;14.20;87.20;;;;;;5006019;28;20609;-68
2021/08/27 09:38:34;;;;;;;5.32;2.50;;;14.10;88.00;;;;;;5006363;28;20578;-68
2021/08/27 09:41:08;;;;;;;3.75;2.63;;;14.10;87.80;;;;;;5010455;28;20038;-68
2021/08/27 09:43:48;;;;;;;5.57;2.45;;;14.20;88.60;;;;;;5008469;28;20548;-68
2021/08/27 09:46:44;;;;;;;4.45;2.60;;;14.40;89.70;;;;;;5000541;28;20049;-69
2021/08/27 09:49:29;;;;;;;2.42;2.00;;;14.60;88.00;;;;;;5001234;28;20113;-69
2021/08/27 09:51:56;;;;;;;4.50;2.40;;;14.70;84.90;;;;;;5005780;28;20030;-69
2021/08/27 09:54:33;;;;;;;3.42;2.30;;;14.70;85.00;;;;;;5007686;28;20041;-69
2021/08/27 09:57:04;;;;;;;3.05;1.88;;;14.50;84.50;;;;;;5007830;28;20026;-69
2021/08/27 09:59:50;;;;;;;3.75;2.20;;;14.60;86.00;;;;;;5010314;28;20036;-69
2021/08/27 10:02:25;;;;;;;2.78;1.98;;;14.60;84.30;;;;;;5009184;28;20489;-68
2021/08/27 10:04:54;;;;;;;3.65;2.15;;;14.40;82.20;;;;;;5008878;28;20117;-68
2021/08/27 10:07:32;;;;;;;4.03;2.30;;;14.40;83.50;;;;;;5003156;28;20030;-69
2021/08/27 10:10:00;;;;;;;3.55;2.55;;;14.60;84.10;;;;;;5021892;28;20041;-69
2021/08/27 10:12:27;;;;;;;2.88;1.90;;;14.70;85.00;;;;;;5009335;28;20110;-69
2021/08/27 10:14:53;;;;;;;4.82;2.42;;;14.80;82.20;;;;;;5011136;28;20033;-69
2021/08/27 10:17:19;;;;;;;3.50;2.08;;;14.90;82.20;;;;;;5009309;28;20033;-69
2021/08/27 10:19:45;;;;;;;2.63;2.08;;;15.00;84.50;;;;;;5020305;28;20491;-69
2021/08/27 10:22:11;;;;;;;5.15;2.60;;;15.00;83.10;;;;;;5007855;28;20044;-68
2021/08/27 10:24:38;;;;;;;2.58;2.05;;;14.90;79.90;;;;;;5009889;28;20026;-69
2021/08/27 10:27:08;;;;;;;4.05;2.10;;;14.90;83.00;;;;;;5006761;28;20030;-69
2021/08/27 10:29:46;;;;;;;2.97;2.13;;;14.90;83.20;;;;;;5012986;28;20018;-69
2021/08/27 10:32:12;;;;;;;2.88;2.10;;;15.10;80.80;;;;;;5009169;28;20057;-69
2021/08/27 10:34:47;;;;;;;2.60;1.80;;;15.20;79.50;;;;;;5009384;28;20022;-68
2021/08/27 10:37:45;;;;;;;1.60;1.50;;;15.30;80.10;;;;;;5008106;28;20502;-69
2021/08/27 10:40:26;;;;;;;1.40;1.30;;;15.10;79.70;;;;;;5003998;28;20105;-69
2021/08/27 10:42:52;;;;;;;1.63;1.50;;;15.20;77.20;;;;;;5013126;28;20029;-69
2021/08/27 10:45:40;;;;;;;1.60;1.50;;;15.10;74.40;;;;;;4999932;28;20057;-69
2021/08/27 10:48:12;;;;;;;3.60;1.30;;;15.10;78.60;;;;;;5009197;28;20033;-69
2021/08/27 10:50:46;;;;;;;2.00;1.15;;;15.30;76.50;;;;;;5013478;28;20281;-70
2021/08/27 10:53:32;;;;;;;1.20;1.10;;;15.40;75.10;;;;;;5012106;28;20025;-69
2021/08/27 10:56:05;;;;;;;1.40;1.27;;;15.30;74.30;;;;;;5000907;28;20033;-69
2021/08/27 10:58:51;;;;;;;1.40;1.30;;;15.30;74.20;;;;;;5003558;28;20031;-69
2021/08/27 11:01:27;;;;;;;1.30;1.20;;;15.40;73.90;;;;;;4998805;28;20498;-69
2021/08/27 11:04:19;;;;;;;1.00;1.00;;;15.50;74.30;;;;;;5025109;28;20038;-68
2021/08/27 11:06:55;;;;;;;1.25;1.20;;;15.60;75.00;;;;;;5010419;28;20034;-68
2021/08/27 11:09:25;;;;;;;1.27;1.10;;;15.60;73.50;;;;;;5013688;28;20030;-68
2021/08/27 11:12:15;;;;;;;2.20;1.10;;;15.70;71.10;;;;;;5011996;28;20029;-68
2021/08/27 11:14:46;;;;;;;2.50;1.15;;;15.80;70.90;;;;;;5010328;28;20036;-69
2021/08/27 11:17:13;;;;;;;2.20;1.00;;;15.80;72.60;;;;;;5011532;28;20026;-69
2021/08/27 11:19:50;;;;;;;2.30;1.10;;;16.10;72.90;;;;;;5013390;28;20125;-68
2021/08/27 11:22:22;;;;;;;1.38;1.10;;;16.20;73.00;;;;;;5013674;28;20040;-69
2021/08/27 11:25:04;;;;;;;1.80;1.10;;;16.20;70.00;;;;;;5011305;28;20444;-68
2021/08/27 11:27:31;;;;;;;1.20;1.10;;;16.10;71.40;;;;;;5013984;28;20348;-69
2021/08/27 11:29:59;;;;;;;1.92;1.10;;;16.00;71.20;;;;;;5013058;28;20022;-68
2021/08/27 11:32:25;;;;;;;1.80;1.20;;;15.90;72.20;;;;;;5013563;28;20521;-69
2021/08/27 11:34:59;;;;;;;2.22;1.30;;;15.80;70.70;;;;;;5002666;28;20058;-69
2021/08/27 11:37:39;;;;;;;1.77;1.40;;;15.90;74.60;;;;;;5011936;28;20071;-68
2021/08/27 11:40:10;;;;;;;1.80;1.23;;;16.00;73.80;;;;;;5010685;28;20088;-68
2021/08/27 11:42:40;;;;;;;2.17;1.38;;;16.00;72.30;;;;;;5014008;28;20026;-68
2021/08/27 11:45:08;;;;;;;1.90;1.23;;;15.90;71.30;;;;;;5007465;28;20021;-68
2021/08/27 11:47:46;;;;;;;1.42;1.30;;;15.90;73.60;;;;;;5007209;28;20021;-69
2021/08/27 11:50:23;;;;;;;1.20;1.20;;;16.00;75.40;;;;;;5020080;28;20111;-68
2021/08/27 11:52:55;;;;;;;1.60;1.27;;;16.20;71.00;;;;;;5007225;28;20052;-68
2021/08/27 11:55:21;;;;;;;1.35;1.25;;;16.00;71.60;;;;;;5011929;28;20049;-69
2021/08/27 11:57:54;;;;;;;2.35;1.00;;;16.10;70.70;;;;;;5011553;28;20127;-68
2021/08/27 12:00:23;;;;;;;1.67;1.10;;;16.00;69.30;;;;;;5017945;28;20091;-69
2021/08/27 12:02:54;;;;;;;0.82;0.82;;;16.20;67.20;;;;;;5012164;28;20057;-69
2021/08/27 12:05:24;;;;;;;2.25;0.98;;;16.30;67.00;;;;;;5005272;28;20034;-69
2021/08/27 12:08:07;;;;;;;1.67;0.98;;;16.20;66.60;;;;;;5008441;28;20029;-68
2021/08/27 12:10:37;;;;;;;1.08;1.08;;;16.20;65.40;;;;;;5009954;28;20068;-68
2021/08/27 12:13:06;;;;;;;1.20;1.10;;;16.10;65.80;;;;;;5008083;28;20030;-68
2021/08/27 12:15:34;;;;;;;1.40;1.20;;;16.10;67.40;;;;;;5008946;28;20030;-68
2021/08/27 12:18:07;;;;;;;2.55;1.23;;;16.20;69.30;;;;;;5008898;28;20120;-68
2021/08/27 12:20:35;;;;;;;1.15;1.15;;;16.20;72.50;;;;;;5013031;28;20387;-68
2021/08/27 12:23:07;;;;;;;1.30;1.20;;;16.20;72.60;;;;;;5007321;28;20033;-68
2021/08/27 12:25:44;;;;;;;1.85;1.25;;;16.50;75.00;;;;;;5006113;28;20045;-68
2021/08/27 12:28:12;;;;;;;2.55;1.20;;;16.50;72.30;;;;;;5005885;28;20021;-68
2021/08/27 12:30:44;;;;;;;;;;;16.30;71.20;;;;;;5012939;28;20030;-68
2021/08/27 12:33:11;;;;;;;1.58;1.48;;;16.20;71.80;;;;;;5022510;28;19913;-69
2021/08/27 12:35:37;;;;;;;2.97;1.60;;;16.10;72.30;;;;;;5012117;28;20037;-68
2021/08/27 12:38:04;;;;;;;1.85;1.27;;;16.10;75.80;;;;;;5008323;28;20026;-68
2021/08/27 12:40:31;;;;;;;2.08;1.33;;;16.30;73.80;;;;;;5012439;28;20021;-68
2021/08/27 12:43:08;;;;;;;2.03;1.20;;;16.20;72.90;;;;;;5009444;28;20020;-68
2021/08/27 12:45:43;;;;;;;2.88;1.55;;;16.00;72.60;;;;;;5010934;28;20079;-69
2021/08/27 12:48:10;;;;;;;3.63;1.50;;;15.80;72.30;;;;;;5008857;28;20049;-68
2021/08/27 12:50:51;;;;;;;2.97;1.38;;;15.60;73.00;;;;;;5007612;28;20033;-69
2021/08/27 12:53:17;;;;;;;1.52;1.25;;;15.60;74.60;;;;;;5000237;28;20479;-67
2021/08/27 12:55:43;;;;;;;2.25;1.25;;;15.70;75.20;;;;;;5007696;28;20083;-68
2021/08/27 12:58:09;;;;;;;2.95;1.30;;;15.70;75.40;;;;;;5012337;28;20030;-68
2021/08/27 13:00:35;;;;;;;1.40;1.30;;;15.70;75.20;;;;;;5004603;28;20053;-68